N881TW KSEZ-UT25
Flight info
| Callsign | N881TW |
|---|---|
| Flight time | 0h 48m |
| Altitude | 15000 |
| Route | BYTER DCT ZAMAB DCT LRAIN |
| Aircraft | PC12/L-SDFGRWY/S |
Departure
| Time | 2026-04-18 09:12 |
|---|---|
| Airport | Sedona Airport (KSEZ) |
Arrival
| Time | 2026-04-18 10:01 |
|---|---|
| Airport | Monument Valley Airport (UT25) |
| Time | Latitude | Longitude | Altitude | Speed | Heading |
|---|---|---|---|---|---|
| 2026-04-18 08:29 | 34.85127 | -111.78674 | 4804 ft | 0 kts | 318° |
| 2026-04-18 09:02 | 34.85133 | -111.78681 | 4812 ft | 3 kts | 301° |
| 2026-04-18 09:02 | 34.85135 | -111.78691 | 4814 ft | 2 kts | 258° |
| 2026-04-18 09:03 | 34.85096 | -111.78738 | 4800 ft | 15 kts | 231° |
| 2026-04-18 09:03 | 34.85045 | -111.78739 | 4797 ft | 11 kts | 72° |
| 2026-04-18 09:03 | 34.85070 | -111.78697 | 4801 ft | 2 kts | 46° |
| 2026-04-18 09:03 | 34.85094 | -111.78667 | 4804 ft | 11 kts | 45° |
| 2026-04-18 09:04 | 34.85168 | -111.78578 | 4813 ft | 17 kts | 44° |
| 2026-04-18 09:04 | 34.85252 | -111.78471 | 4827 ft | 18 kts | 49° |
| 2026-04-18 09:04 | 34.85335 | -111.78366 | 4836 ft | 15 kts | 43° |
| 2026-04-18 09:04 | 34.85350 | -111.78302 | 4832 ft | 2 kts | 133° |
| 2026-04-18 09:06 | 34.85349 | -111.78300 | 4840 ft | 2 kts | 132° |
| 2026-04-18 09:07 | 34.85310 | -111.78277 | 4833 ft | 6 kts | 236° |
| 2026-04-18 09:07 | 34.85298 | -111.78299 | 4831 ft | 0 kts | 227° |
| 2026-04-18 09:10 | 34.85297 | -111.78300 | 4831 ft | 0 kts | 227° |
| 2026-04-18 09:11 | 34.85210 | -111.78407 | 4826 ft | 43 kts | 225° |
| 2026-04-18 09:12 | 34.84863 | -111.78834 | 4785 ft | 97 kts | 221° |
| 2026-04-18 09:12 | 34.84291 | -111.79515 | 4866 ft | 122 kts | 222° |
| 2026-04-18 09:12 | 34.83616 | -111.80258 | 5254 ft | 136 kts | 225° |
| 2026-04-18 09:12 | 34.82903 | -111.81068 | 5701 ft | 143 kts | 224° |
| 2026-04-18 09:13 | 34.82164 | -111.81918 | 6155 ft | 152 kts | 223° |
| 2026-04-18 09:13 | 34.81336 | -111.82847 | 6463 ft | 172 kts | 222° |
| 2026-04-18 09:13 | 34.80459 | -111.83864 | 6981 ft | 175 kts | 224° |
| 2026-04-18 09:13 | 34.79590 | -111.84911 | 7510 ft | 177 kts | 224° |
| 2026-04-18 09:14 | 34.78751 | -111.86032 | 8096 ft | 177 kts | 229° |
| 2026-04-18 09:14 | 34.77898 | -111.87096 | 8610 ft | 178 kts | 211° |
| 2026-04-18 09:14 | 34.76696 | -111.87450 | 8992 ft | 183 kts | 178° |
| 2026-04-18 09:14 | 34.75409 | -111.87300 | 9386 ft | 188 kts | 175° |
| 2026-04-18 09:15 | 34.74096 | -111.87109 | 9766 ft | 192 kts | 175° |
| 2026-04-18 09:15 | 34.72764 | -111.86920 | 10151 ft | 194 kts | 175° |
| 2026-04-18 09:15 | 34.71414 | -111.86730 | 10491 ft | 196 kts | 175° |
| 2026-04-18 09:15 | 34.70087 | -111.86365 | 10845 ft | 198 kts | 155° |
| 2026-04-18 09:16 | 34.69068 | -111.85245 | 11213 ft | 202 kts | 123° |
| 2026-04-18 09:16 | 34.68519 | -111.83679 | 11582 ft | 201 kts | 110° |
| 2026-04-18 09:16 | 34.68045 | -111.82066 | 11951 ft | 204 kts | 110° |
| 2026-04-18 09:16 | 34.67559 | -111.80441 | 12328 ft | 206 kts | 110° |
| 2026-04-18 09:17 | 34.67070 | -111.78827 | 12698 ft | 207 kts | 110° |
| 2026-04-18 09:17 | 34.66572 | -111.77180 | 13079 ft | 208 kts | 110° |
| 2026-04-18 09:17 | 34.66074 | -111.75524 | 13455 ft | 209 kts | 109° |
| 2026-04-18 09:17 | 34.65878 | -111.73801 | 13861 ft | 206 kts | 81° |
| 2026-04-18 09:18 | 34.66374 | -111.72193 | 14227 ft | 203 kts | 52° |
| 2026-04-18 09:18 | 34.67398 | -111.71062 | 14595 ft | 198 kts | 28° |
| 2026-04-18 09:18 | 34.68576 | -111.70188 | 14940 ft | 200 kts | 27° |
| 2026-04-18 09:18 | 34.69818 | -111.69272 | 14969 ft | 217 kts | 28° |
| 2026-04-18 09:19 | 34.71140 | -111.68286 | 14976 ft | 229 kts | 28° |
| 2026-04-18 09:19 | 34.72524 | -111.67253 | 14981 ft | 237 kts | 28° |
| 2026-04-18 09:19 | 34.73949 | -111.66190 | 14987 ft | 242 kts | 28° |
| 2026-04-18 09:19 | 34.75401 | -111.65110 | 14990 ft | 246 kts | 28° |
| 2026-04-18 09:20 | 34.76867 | -111.64018 | 14990 ft | 249 kts | 28° |
| 2026-04-18 09:20 | 34.78414 | -111.63101 | 14991 ft | 246 kts | 11° |
| 2026-04-18 09:20 | 34.80093 | -111.62992 | 14996 ft | 241 kts | 349° |
| 2026-04-18 09:20 | 34.81696 | -111.63458 | 14999 ft | 240 kts | 342° |
| 2026-04-18 09:21 | 34.83319 | -111.63980 | 14997 ft | 242 kts | 342° |
| 2026-04-18 09:21 | 34.84949 | -111.64492 | 14994 ft | 242 kts | 343° |
| 2026-04-18 09:21 | 34.86584 | -111.65001 | 14994 ft | 244 kts | 343° |
| 2026-04-18 09:21 | 34.88251 | -111.65294 | 14994 ft | 245 kts | 0° |
| 2026-04-18 09:22 | 34.89908 | -111.64772 | 14991 ft | 250 kts | 18° |
| 2026-04-18 09:22 | 34.91526 | -111.63993 | 14990 ft | 251 kts | 19° |
| 2026-04-18 09:22 | 34.93157 | -111.63200 | 14983 ft | 253 kts | 19° |
| 2026-04-18 09:22 | 34.94794 | -111.62417 | 14978 ft | 252 kts | 18° |
| 2026-04-18 09:23 | 34.96427 | -111.61640 | 14977 ft | 252 kts | 18° |
| 2026-04-18 09:23 | 34.98062 | -111.60862 | 15038 ft | 252 kts | 18° |
| 2026-04-18 09:23 | 34.99688 | -111.60086 | 15051 ft | 251 kts | 19° |
| 2026-04-18 09:23 | 35.01318 | -111.59308 | 15057 ft | 252 kts | 19° |
| 2026-04-18 09:24 | 35.02948 | -111.58530 | 15059 ft | 251 kts | 19° |
| 2026-04-18 09:24 | 35.04574 | -111.57753 | 15078 ft | 252 kts | 19° |
| 2026-04-18 09:24 | 35.06189 | -111.56982 | 15080 ft | 253 kts | 19° |
| 2026-04-18 09:24 | 35.07834 | -111.56195 | 15072 ft | 254 kts | 19° |
| 2026-04-18 09:25 | 35.09485 | -111.55406 | 15078 ft | 255 kts | 19° |
| 2026-04-18 09:25 | 35.11142 | -111.54612 | 15082 ft | 255 kts | 19° |
| 2026-04-18 09:25 | 35.12797 | -111.53820 | 15080 ft | 256 kts | 19° |
| 2026-04-18 09:25 | 35.14455 | -111.53026 | 15077 ft | 256 kts | 19° |
| 2026-04-18 09:26 | 35.16108 | -111.52234 | 15069 ft | 255 kts | 19° |
| 2026-04-18 09:26 | 35.17755 | -111.51445 | 15071 ft | 253 kts | 19° |
| 2026-04-18 09:26 | 35.19374 | -111.50668 | 15062 ft | 253 kts | 18° |
| 2026-04-18 09:26 | 35.21013 | -111.49883 | 15059 ft | 253 kts | 18° |
| 2026-04-18 09:27 | 35.22648 | -111.49098 | 15054 ft | 253 kts | 18° |
| 2026-04-18 09:27 | 35.24285 | -111.48312 | 15048 ft | 253 kts | 18° |
| 2026-04-18 09:27 | 35.25920 | -111.47527 | 15042 ft | 252 kts | 18° |
| 2026-04-18 09:27 | 35.27555 | -111.46741 | 15038 ft | 252 kts | 18° |
| 2026-04-18 09:28 | 35.29182 | -111.45959 | 15031 ft | 251 kts | 18° |
| 2026-04-18 09:28 | 35.30804 | -111.45179 | 15030 ft | 250 kts | 18° |
| 2026-04-18 09:28 | 35.32427 | -111.44398 | 15022 ft | 251 kts | 18° |
| 2026-04-18 09:28 | 35.34026 | -111.43544 | 15012 ft | 250 kts | 26° |
| 2026-04-18 09:29 | 35.35537 | -111.42474 | 15015 ft | 252 kts | 27° |
| 2026-04-18 09:29 | 35.37048 | -111.41394 | 15005 ft | 251 kts | 27° |
| 2026-04-18 09:29 | 35.38564 | -111.40319 | 15012 ft | 252 kts | 26° |
| 2026-04-18 09:29 | 35.40084 | -111.39243 | 15001 ft | 252 kts | 26° |
| 2026-04-18 09:30 | 35.41604 | -111.38164 | 15003 ft | 253 kts | 27° |
| 2026-04-18 09:30 | 35.43124 | -111.37083 | 15002 ft | 253 kts | 27° |
| 2026-04-18 09:30 | 35.44645 | -111.36003 | 15005 ft | 252 kts | 27° |
| 2026-04-18 09:30 | 35.46164 | -111.34923 | 15008 ft | 253 kts | 27° |
| 2026-04-18 09:31 | 35.47683 | -111.33844 | 15009 ft | 252 kts | 27° |
| 2026-04-18 09:31 | 35.49200 | -111.32764 | 15012 ft | 252 kts | 27° |
| 2026-04-18 09:31 | 35.50713 | -111.31688 | 15019 ft | 251 kts | 27° |
| 2026-04-18 09:31 | 35.52226 | -111.30611 | 15015 ft | 251 kts | 27° |
| 2026-04-18 09:32 | 35.53715 | -111.29550 | 15024 ft | 251 kts | 27° |
| 2026-04-18 09:32 | 35.55225 | -111.28475 | 15026 ft | 251 kts | 27° |
| 2026-04-18 09:32 | 35.56739 | -111.27395 | 15031 ft | 252 kts | 27° |
| 2026-04-18 09:32 | 35.58256 | -111.26313 | 15033 ft | 251 kts | 27° |
| 2026-04-18 09:33 | 35.59769 | -111.25233 | 15035 ft | 251 kts | 27° |
| 2026-04-18 09:33 | 35.61279 | -111.24156 | 15039 ft | 251 kts | 27° |
| 2026-04-18 09:33 | 35.62786 | -111.23080 | 15037 ft | 251 kts | 26° |
| 2026-04-18 09:33 | 35.64293 | -111.22003 | 15038 ft | 250 kts | 27° |
| 2026-04-18 09:34 | 35.65801 | -111.20926 | 15044 ft | 251 kts | 27° |
| 2026-04-18 09:34 | 35.67313 | -111.19845 | 15042 ft | 251 kts | 27° |
| 2026-04-18 09:34 | 35.68822 | -111.18765 | 15045 ft | 251 kts | 26° |
| 2026-04-18 09:34 | 35.70330 | -111.17685 | 15042 ft | 251 kts | 27° |
| 2026-04-18 09:35 | 35.71839 | -111.16606 | 15045 ft | 251 kts | 27° |
| 2026-04-18 09:35 | 35.73351 | -111.15523 | 15047 ft | 251 kts | 27° |
| 2026-04-18 09:35 | 35.74838 | -111.14457 | 15051 ft | 251 kts | 27° |
| 2026-04-18 09:35 | 35.76346 | -111.13375 | 15046 ft | 251 kts | 27° |
| 2026-04-18 09:36 | 35.77874 | -111.12280 | 15050 ft | 251 kts | 27° |
| 2026-04-18 09:36 | 35.79364 | -111.11211 | 15049 ft | 251 kts | 27° |
| 2026-04-18 09:36 | 35.80871 | -111.10128 | 15049 ft | 250 kts | 27° |
| 2026-04-18 09:36 | 35.82377 | -111.09047 | 15048 ft | 250 kts | 27° |
| 2026-04-18 09:37 | 35.83880 | -111.07967 | 15048 ft | 250 kts | 26° |
| 2026-04-18 09:37 | 35.85387 | -111.06884 | 15050 ft | 250 kts | 26° |
| 2026-04-18 09:37 | 35.86891 | -111.05802 | 15049 ft | 250 kts | 26° |
| 2026-04-18 09:37 | 35.88394 | -111.04721 | 15048 ft | 250 kts | 26° |
| 2026-04-18 09:38 | 35.89895 | -111.03641 | 15051 ft | 250 kts | 26° |
| 2026-04-18 09:38 | 35.91398 | -111.02559 | 15049 ft | 250 kts | 26° |
| 2026-04-18 09:38 | 35.92903 | -111.01474 | 15048 ft | 250 kts | 27° |
| 2026-04-18 09:38 | 35.94403 | -111.00393 | 15050 ft | 250 kts | 26° |
| 2026-04-18 09:39 | 35.95904 | -110.99311 | 15049 ft | 250 kts | 26° |
| 2026-04-18 09:39 | 35.97391 | -110.98238 | 15044 ft | 251 kts | 26° |
| 2026-04-18 09:39 | 35.98898 | -110.97151 | 15044 ft | 251 kts | 26° |
| 2026-04-18 09:39 | 36.00404 | -110.96063 | 15045 ft | 251 kts | 26° |
| 2026-04-18 09:40 | 36.01913 | -110.94973 | 15045 ft | 251 kts | 26° |
| 2026-04-18 09:40 | 36.03424 | -110.93881 | 15045 ft | 251 kts | 26° |
| 2026-04-18 09:40 | 36.04930 | -110.92792 | 15038 ft | 251 kts | 26° |
| 2026-04-18 09:40 | 36.06436 | -110.91702 | 15037 ft | 251 kts | 26° |
| 2026-04-18 09:41 | 36.07941 | -110.90613 | 15034 ft | 251 kts | 26° |
| 2026-04-18 09:41 | 36.09447 | -110.89523 | 15035 ft | 251 kts | 26° |
| 2026-04-18 09:41 | 36.10952 | -110.88433 | 15037 ft | 251 kts | 26° |
| 2026-04-18 09:41 | 36.12457 | -110.87342 | 15031 ft | 251 kts | 26° |
| 2026-04-18 09:42 | 36.13961 | -110.86252 | 15033 ft | 251 kts | 26° |
| 2026-04-18 09:42 | 36.15450 | -110.85172 | 15034 ft | 251 kts | 26° |
| 2026-04-18 09:42 | 36.16959 | -110.84077 | 15030 ft | 251 kts | 26° |
| 2026-04-18 09:42 | 36.18465 | -110.82984 | 15029 ft | 250 kts | 26° |
| 2026-04-18 09:43 | 36.19971 | -110.81890 | 15029 ft | 251 kts | 26° |
| 2026-04-18 09:43 | 36.21478 | -110.80795 | 15027 ft | 251 kts | 26° |
| 2026-04-18 09:43 | 36.22986 | -110.79699 | 15030 ft | 251 kts | 26° |
| 2026-04-18 09:43 | 36.24496 | -110.78601 | 15026 ft | 252 kts | 26° |
| 2026-04-18 09:44 | 36.26003 | -110.77504 | 15026 ft | 251 kts | 26° |
| 2026-04-18 09:44 | 36.27488 | -110.76423 | 15026 ft | 251 kts | 26° |
| 2026-04-18 09:44 | 36.28993 | -110.75327 | 15026 ft | 250 kts | 26° |
| 2026-04-18 09:44 | 36.30493 | -110.74234 | 15024 ft | 250 kts | 26° |
| 2026-04-18 09:45 | 36.31990 | -110.73144 | 15026 ft | 250 kts | 26° |
| 2026-04-18 09:45 | 36.33490 | -110.72050 | 15027 ft | 250 kts | 26° |
| 2026-04-18 09:45 | 36.34991 | -110.70954 | 15028 ft | 250 kts | 26° |
| 2026-04-18 09:45 | 36.35986 | -110.70228 | 15024 ft | 250 kts | 26° |
| 2026-04-18 09:46 | 36.37487 | -110.69133 | 15026 ft | 250 kts | 26° |
| 2026-04-18 09:46 | 36.38989 | -110.68035 | 15025 ft | 250 kts | 26° |
| 2026-04-18 09:46 | 36.40486 | -110.66941 | 15024 ft | 250 kts | 26° |
| 2026-04-18 09:46 | 36.41988 | -110.65843 | 15023 ft | 250 kts | 26° |
| 2026-04-18 09:47 | 36.43485 | -110.64749 | 15024 ft | 250 kts | 26° |
| 2026-04-18 09:47 | 36.44985 | -110.63651 | 15024 ft | 250 kts | 26° |
| 2026-04-18 09:47 | 36.46486 | -110.62552 | 15022 ft | 251 kts | 26° |
| 2026-04-18 09:47 | 36.47990 | -110.61450 | 15021 ft | 251 kts | 26° |
| 2026-04-18 09:48 | 36.49499 | -110.60345 | 15028 ft | 252 kts | 26° |
| 2026-04-18 09:48 | 36.50997 | -110.59247 | 15022 ft | 252 kts | 26° |
| 2026-04-18 09:48 | 36.52484 | -110.58095 | 15024 ft | 251 kts | 28° |
| 2026-04-18 09:48 | 36.53970 | -110.56953 | 15022 ft | 250 kts | 25° |
| 2026-04-18 09:49 | 36.55463 | -110.55849 | 15023 ft | 250 kts | 26° |
| 2026-04-18 09:49 | 36.56945 | -110.54718 | 15027 ft | 250 kts | 27° |
| 2026-04-18 09:49 | 36.58427 | -110.53569 | 15029 ft | 250 kts | 26° |
| 2026-04-18 09:49 | 36.59924 | -110.52415 | 14807 ft | 259 kts | 26° |
| 2026-04-18 09:50 | 36.61446 | -110.51304 | 14783 ft | 256 kts | 24° |
| 2026-04-18 09:50 | 36.63004 | -110.50358 | 15173 ft | 234 kts | 19° |
| 2026-04-18 09:50 | 36.64462 | -110.49523 | 15294 ft | 236 kts | 18° |
| 2026-04-18 09:50 | 36.65990 | -110.48693 | 15158 ft | 247 kts | 18° |
| 2026-04-18 09:51 | 36.67575 | -110.47854 | 15041 ft | 252 kts | 18° |
| 2026-04-18 09:51 | 36.69202 | -110.47001 | 14710 ft | 256 kts | 18° |
| 2026-04-18 09:51 | 36.70841 | -110.46146 | 14356 ft | 260 kts | 18° |
| 2026-04-18 09:51 | 36.72506 | -110.45250 | 13995 ft | 261 kts | 21° |
| 2026-04-18 09:52 | 36.74070 | -110.44063 | 13598 ft | 264 kts | 31° |
| 2026-04-18 09:52 | 36.75545 | -110.42681 | 13209 ft | 265 kts | 34° |
| 2026-04-18 09:52 | 36.76875 | -110.41376 | 12857 ft | 264 kts | 34° |
| 2026-04-18 09:52 | 36.78311 | -110.39964 | 12472 ft | 261 kts | 35° |
| 2026-04-18 09:53 | 36.79728 | -110.38577 | 12088 ft | 257 kts | 34° |
| 2026-04-18 09:53 | 36.81021 | -110.37065 | 11716 ft | 255 kts | 44° |
| 2026-04-18 09:53 | 36.82224 | -110.35451 | 11349 ft | 252 kts | 42° |
| 2026-04-18 09:53 | 36.83552 | -110.34063 | 10991 ft | 248 kts | 32° |
| 2026-04-18 09:54 | 36.85021 | -110.32948 | 10633 ft | 246 kts | 27° |
| 2026-04-18 09:54 | 36.86506 | -110.31887 | 10271 ft | 245 kts | 29° |
| 2026-04-18 09:54 | 36.87953 | -110.30773 | 9882 ft | 243 kts | 31° |
| 2026-04-18 09:54 | 36.89376 | -110.29644 | 9491 ft | 242 kts | 31° |
| 2026-04-18 09:55 | 36.90784 | -110.28541 | 9105 ft | 242 kts | 31° |
| 2026-04-18 09:55 | 36.92212 | -110.27436 | 8719 ft | 241 kts | 31° |
| 2026-04-18 09:55 | 36.93637 | -110.26331 | 8335 ft | 241 kts | 31° |
| 2026-04-18 09:55 | 36.95057 | -110.25226 | 7956 ft | 240 kts | 31° |
| 2026-04-18 09:56 | 36.96470 | -110.24105 | 7579 ft | 241 kts | 34° |
| 2026-04-18 09:56 | 36.97598 | -110.22611 | 7319 ft | 234 kts | 57° |
| 2026-04-18 09:56 | 36.98244 | -110.20760 | 7008 ft | 233 kts | 70° |
| 2026-04-18 09:56 | 36.98745 | -110.18865 | 6853 ft | 225 kts | 71° |
| 2026-04-18 09:57 | 36.99353 | -110.17204 | 6835 ft | 194 kts | 50° |
| 2026-04-18 09:57 | 37.00412 | -110.16367 | 6732 ft | 173 kts | 12° |
| 2026-04-18 09:57 | 37.01544 | -110.16186 | 6659 ft | 154 kts | 4° |
| 2026-04-18 09:57 | 37.02570 | -110.16123 | 6577 ft | 142 kts | 0° |
| 2026-04-18 09:58 | 37.03511 | -110.16170 | 6594 ft | 123 kts | 354° |
| 2026-04-18 09:58 | 37.04293 | -110.16324 | 6577 ft | 109 kts | 347° |
| 2026-04-18 09:58 | 37.04892 | -110.16847 | 6362 ft | 107 kts | 297° |
| 2026-04-18 09:58 | 37.05109 | -110.17681 | 6141 ft | 99 kts | 282° |
| 2026-04-18 09:59 | 37.05207 | -110.18483 | 5934 ft | 88 kts | 272° |
| 2026-04-18 09:59 | 37.05196 | -110.19228 | 5731 ft | 86 kts | 264° |
| 2026-04-18 09:59 | 37.04931 | -110.19866 | 5647 ft | 83 kts | 216° |
| 2026-04-18 10:00 | 37.03909 | -110.20475 | 5472 ft | 82 kts | 182° |
| 2026-04-18 10:00 | 37.03339 | -110.20449 | 5381 ft | 81 kts | 171° |
| 2026-04-18 10:00 | 37.02777 | -110.20358 | 5276 ft | 81 kts | 170° |
| 2026-04-18 10:00 | 37.02214 | -110.20283 | 5171 ft | 81 kts | 171° |
| 2026-04-18 10:01 | 37.01726 | -110.20216 | 5186 ft | 58 kts | 174° |
| 2026-04-18 10:01 | 37.01342 | -110.20169 | 5219 ft | 58 kts | 174° |
| 2026-04-18 10:01 | 37.01089 | -110.20134 | 5240 ft | 7 kts | 174° |
| 2026-04-18 10:01 | 37.01061 | -110.20146 | 5242 ft | 5 kts | 253° |
| 2026-04-18 10:02 | 37.01113 | -110.20170 | 5238 ft | 12 kts | 354° |
| 2026-04-18 10:02 | 37.01148 | -110.20211 | 5235 ft | 13 kts | 173° |
| 2026-04-18 10:02 | 37.01141 | -110.20209 | 5235 ft | 0 kts | 169° |
| 2026-04-18 10:03 | 37.01139 | -110.20209 | 5236 ft | 2 kts | 167° |
| 2026-04-18 10:03 | 37.01129 | -110.20193 | 5237 ft | 0 kts | 89° |